Seligman, AZ (86337)

09:20 AM MST del 29 Gennaio 2015 (GMT -0700)
W7RH Westwood Ranch | Change Station
CLOSE
Current Station
Stazione meteo personale
Location: Ash Fork, AZ
Altitudine: 5912 ft
Stazioni meteo nelle vicinanze

Alt. 5912 ft 35.40 °N, 112.66 °W | Updated 4 minutes ago

Coperto
Coperto
41.2 °F
Sembra 38 °F
N
5.3
Vento Variabile Vento da NNE

Oggi
Massima -- | Minima -- °F
--% Possibilità di precip.
Ieri
Massima -- | Minima -- °F
Precip. -- in
7:33 AM 5:56 PM
Gobba a ponente, 75% visible
Pressione 30.12 in
Visibilità 10.0 miglia
Nuvole Molto nuvoloso 12000 ft
Raffreddamento del vento 38 °F
Punto di rugiada 34 °F
Umidità 76%
Piovosità 0.00 in
Spessore del manto nevoso Non disponibile.
Raggi UV 1 fuori da 12
Polline 5.30 fuori da 12
Qualità dell'aria Non disponibile.
Flu Activity Non disponibile.
METAR KPRC 291553Z 00000KT 10SM BKN120 07/01 A3022 RMK AO2 SLP199 T00720006

More Conditions Fewer Conditions

Pressione 30.12 in
Visibilità 10.0 miglia
Nuvole Molto nuvoloso 12000 ft
Raffreddamento del vento 38 °F
Punto di rugiada 34 °F
Umidità 76%
Piovosità 0.00 in
Spessore del manto nevoso Non disponibile.
Raggi UV 1 fuori da 12
Polline 5.30 fuori da 12
Qualità dell'aria Non disponibile.
Flu Activity Non disponibile.
METAR KPRC 291553Z 00000KT 10SM BKN120 07/01 A3022 RMK AO2 SLP199 T00720006

More Conditions Fewer Conditions

10-Day Weather Forecast

Almanac

Astronomia

Jan. 29, 2015 Alba Tramonto
Ora attuale
Crepuscolo civile
Crepuscolo nautico
Crepuscolo astronomico
Luna
Estensione della luce visibile
Lunghezza del giorno
Tomorrow will be .
, % of the Moon is Illuminated

Gli estremi di oggi

State Highs State Lows

Community

WunderPhotos

Upload Photos

1,791,464 foto caricate!

WunderBlogs® & News

Nearby

Qualità dell'aria

  Qualità dell'aria Indice AQ Inquinante
Not available.

Profondità neve

Stazione Profondità Altitudine

Attività sismica

Città  Distanza Mag. Data & Ora
Minimo Magnitudo Mostrato è 2.5.

Temperature delle acque costiere

Località Temperatura

Stazioni meteo nelle vicinanze